BLUO2: Blue River, Blue, OK

                                SHEF ID:       BLUO2     Blue River near Blue, OK
STATION TYPE:
Regulating: Stage = 21.00, Flow = 5001

PRECIP STAGE RIV-FLOW BAT-LOAD
in ft cfs volt
Ccp-Rev Ccp-Rev Ccp-Rev Ccp-Rev
(America/Chicago)
03/06 00:00 0.00 10.46 970 12.97
03/06 01:00 0.00 10.76 1053 12.97
03/06 02:00 0.00 10.93 1102 12.97
03/06 03:00 0.00 11.00 1122 12.97
03/06 04:00 0.00 11.01 1125 12.89
03/06 05:00 0.00 10.94 1105 12.89
03/06 06:00 0.00 10.80 1065 12.89
03/06 07:00 0.00 10.63 1017 12.89
03/06 08:00 0.00 10.41 956 12.89
03/06 09:00 0.00 10.17 891 12.89
03/06 10:00 0.00 9.90 820 13.05
03/06 11:00 0.00 9.66 756 13.21
03/06 12:00 0.00 9.40 689 13.60
03/06 13:00 0.00 9.16 629 13.60
03/06 14:00 0.00 8.96 580 13.60
03/06 15:00 0.00 8.77 535 13.53
03/06 16:00 0.00 8.60 495 13.37
03/06 17:00 0.00 8.46 464 13.44
03/06 18:00 0.00 8.34 438 13.13
03/06 19:00 0.00 8.20 408 13.05
03/06 20:00 0.00 8.10 388 13.05
03/06 21:00 0.00 8.00 368 12.97
03/06 22:00 0.00 7.91 350 12.97
03/06 23:00 0.00 7.81 330 12.97
Data processed at Sat 07Mar2026 05:47 GMT

NOTICE: If you are parsing this page

Please convert to using our Data API. Starting early 2026 we will be migrating to: https://water.usace.army.mil with modern pages rendered in JavaScript. When this migration completes you will no longer be able to scrape this page! CWMSDataAPI (CDA)

Timeseries IDs (TSIDs)

TSIDs used from left to right in the data table
BLUE.Precip-Inc.Total.1Hour.1Hour.Ccp-Rev
BLUE.Stage.Inst.1Hour.0.Ccp-Rev
BLUE.Flow.Inst.1Hour.0.Ccp-Rev
BLUE.Volt-Battery Load.Inst.1Hour.0.Ccp-Rev

                            

All information presented herein is the property of the government of the United States of America and may be revised or deleted at any time without prior notice. Dissemination of this information without the expressed written consent of the Public Affairs Office, Tulsa District U.S. Army Corps of Engineers is strictly prohibited. These data are gathered electronically and, as presented, have NOT undergone any form of quality control. These data are NOT guaranteed to be valid or correct.